createdAt,value
2018-07-01T00:00:51.212Z,1011.78
2018-07-01T00:01:51.263Z,1011.81
2018-07-01T00:02:51.264Z,1011.78
2018-07-01T00:03:51.296Z,1011.81
2018-07-01T00:05:51.214Z,1011.75
2018-07-01T00:06:51.009Z,1011.76
2018-07-01T00:07:51.214Z,1011.76
2018-07-01T00:08:51.280Z,1011.76
2018-07-01T00:09:51.312Z,1011.77
2018-07-01T00:10:51.328Z,1011.81
2018-07-01T00:11:51.712Z,1011.76
2018-07-01T00:12:51.216Z,1011.80
2018-07-01T00:13:51.162Z,1011.76
2018-07-01T00:14:51.219Z,1011.76
2018-07-01T00:15:51.217Z,1011.81
2018-07-01T00:16:51.213Z,1011.80
2018-07-01T00:17:51.237Z,1011.80
2018-07-01T00:18:51.221Z,1011.78
2018-07-01T00:19:51.715Z,1011.78
2018-07-01T00:20:51.314Z,1011.83
2018-07-01T00:21:51.025Z,1011.81
2018-07-01T00:22:51.023Z,1011.75
2018-07-01T00:23:51.024Z,1011.83
2018-07-01T00:24:51.223Z,1011.80
2018-07-01T00:25:51.295Z,1011.81
2018-07-01T00:26:51.241Z,1011.84
2018-07-01T00:27:51.216Z,1011.86
2018-07-01T00:28:51.263Z,1011.80
2018-07-01T00:29:51.272Z,1011.84
2018-07-01T00:30:50.988Z,1011.82
2018-07-01T00:31:51.239Z,1011.82
2018-07-01T00:32:51.264Z,1011.86
2018-07-01T00:33:50.994Z,1011.81
2018-07-01T00:34:51.264Z,1011.78
2018-07-01T00:35:51.233Z,1011.85
2018-07-01T00:36:51.007Z,1011.82
2018-07-01T00:37:51.243Z,1011.81
2018-07-01T00:38:51.019Z,1011.79
2018-07-01T00:39:50.999Z,1011.79
2018-07-01T00:40:51.006Z,1011.82
2018-07-01T00:41:51.226Z,1011.77
2018-07-01T00:42:51.251Z,1011.79
2018-07-01T00:43:51.224Z,1011.73
2018-07-01T00:44:51.243Z,1011.73
2018-07-01T00:45:51.224Z,1011.74
2018-07-01T00:46:51.020Z,1011.75
2018-07-01T00:47:51.231Z,1011.72
2018-07-01T00:48:51.252Z,1011.73
2018-07-01T00:49:51.233Z,1011.71
2018-07-01T00:50:51.223Z,1011.71
2018-07-01T00:51:51.279Z,1011.70
2018-07-01T00:52:51.261Z,1011.69
2018-07-01T00:53:50.730Z,1011.72
2018-07-01T00:54:51.229Z,1011.64
2018-07-01T00:55:51.302Z,1011.70
2018-07-01T00:56:50.645Z,1011.69
2018-07-01T00:57:51.233Z,1011.67
2018-07-01T00:58:51.253Z,1011.68
2018-07-01T00:59:51.236Z,1011.68
2018-07-01T01:00:51.273Z,1011.66
2018-07-01T01:01:51.151Z,1011.66
2018-07-01T01:02:51.361Z,1011.65
2018-07-01T01:03:51.233Z,1011.64
2018-07-01T01:04:51.274Z,1011.68
2018-07-01T01:05:51.027Z,1011.69
2018-07-01T01:06:51.276Z,1011.66
2018-07-01T01:07:51.270Z,1011.69
2018-07-01T01:08:51.272Z,1011.75
2018-07-01T01:09:51.009Z,1011.74
2018-07-01T01:10:51.279Z,1011.70
2018-07-01T01:11:51.088Z,1011.70
2018-07-01T01:12:51.005Z,1011.70
2018-07-01T01:13:51.269Z,1011.71
2018-07-01T01:14:51.069Z,1011.73
2018-07-01T01:15:51.250Z,1011.72
2018-07-01T01:16:51.059Z,1011.74
2018-07-01T01:17:51.060Z,1011.77
2018-07-01T01:18:52.325Z,1011.78
2018-07-01T01:19:50.639Z,1011.73
2018-07-01T01:20:51.238Z,1011.78
2018-07-01T01:21:51.236Z,1011.78
2018-07-01T01:22:50.739Z,1011.76
2018-07-01T01:23:51.284Z,1011.72
2018-07-01T01:24:51.186Z,1011.76
2018-07-01T01:25:51.237Z,1011.72
2018-07-01T01:26:51.737Z,1011.74
2018-07-01T01:27:51.244Z,1011.73
2018-07-01T01:28:51.275Z,1011.74
2018-07-01T01:29:51.250Z,1011.77
2018-07-01T01:30:51.241Z,1011.70
2018-07-01T01:31:51.241Z,1011.74
2018-07-01T01:32:51.279Z,1011.75
2018-07-01T01:33:51.285Z,1011.76
2018-07-01T01:34:51.283Z,1011.76
2018-07-01T01:35:51.285Z,1011.76
2018-07-01T01:36:51.243Z,1011.74
2018-07-01T01:37:50.994Z,1011.74
2018-07-01T01:38:51.290Z,1011.79
2018-07-01T01:39:51.289Z,1011.75
2018-07-01T01:40:51.288Z,1011.74
2018-07-01T01:41:51.288Z,1011.78
2018-07-01T01:42:51.289Z,1011.77
2018-07-01T01:43:51.288Z,1011.80
2018-07-01T01:44:51.293Z,1011.79
2018-07-01T01:45:52.243Z,1011.85
2018-07-01T01:46:49.601Z,1011.81
2018-07-01T01:47:51.294Z,1011.83
2018-07-01T01:48:51.982Z,1011.84
2018-07-01T01:49:51.253Z,1011.82
2018-07-01T01:50:51.292Z,1011.80
2018-07-01T01:51:51.029Z,1011.82
2018-07-01T01:52:51.028Z,1011.82
2018-07-01T01:53:50.965Z,1011.79
2018-07-01T01:54:51.239Z,1011.77
2018-07-01T01:55:53.246Z,1011.79
2018-07-01T01:56:51.250Z,1011.78
2018-07-01T01:57:51.247Z,1011.78
2018-07-01T01:58:51.239Z,1011.81
2018-07-01T01:59:53.094Z,1011.76
2018-07-01T02:00:51.249Z,1011.78
2018-07-01T02:01:51.250Z,1011.76
2018-07-01T02:02:51.295Z,1011.81
2018-07-01T02:03:51.079Z,1011.82
2018-07-01T02:04:51.009Z,1011.84
2018-07-01T02:05:51.291Z,1011.78
2018-07-01T02:06:51.301Z,1011.85
2018-07-01T02:07:51.250Z,1011.83
2018-07-01T02:08:51.253Z,1011.84
2018-07-01T02:09:51.298Z,1011.85
2018-07-01T02:10:51.311Z,1011.88
2018-07-01T02:11:51.254Z,1011.87
2018-07-01T02:12:51.320Z,1011.89
2018-07-01T02:13:50.760Z,1011.85
2018-07-01T02:14:51.253Z,1011.91
2018-07-01T02:15:51.300Z,1011.87
2018-07-01T02:16:51.300Z,1011.85
2018-07-01T02:17:51.260Z,1011.86
2018-07-01T02:18:51.296Z,1011.86
2018-07-01T02:19:51.311Z,1011.91
2018-07-01T02:20:51.796Z,1011.88
2018-07-01T02:21:51.339Z,1011.91
2018-07-01T02:22:50.758Z,1011.88
2018-07-01T02:23:51.295Z,1011.94
2018-07-01T02:24:51.086Z,1011.91
2018-07-01T02:25:51.304Z,1011.92
2018-07-01T02:26:51.309Z,1011.96
2018-07-01T02:27:51.296Z,1011.93
2018-07-01T02:28:50.763Z,1011.98
2018-07-01T02:29:51.044Z,1011.98
2018-07-01T02:30:51.259Z,1011.98
2018-07-01T02:31:50.724Z,1011.98
2018-07-01T02:32:51.264Z,1011.99
2018-07-01T02:33:51.270Z,1012.01
2018-07-01T02:34:51.307Z,1012.03
2018-07-01T02:35:51.067Z,1012.00
2018-07-01T02:36:51.306Z,1012.05
2018-07-01T02:37:51.303Z,1012.00
2018-07-01T02:38:50.684Z,1012.01
2018-07-01T02:39:51.304Z,1012.04
2018-07-01T02:40:51.308Z,1012.01
2018-07-01T02:41:51.303Z,1011.99
2018-07-01T02:42:51.271Z,1012.02
2018-07-01T02:43:51.031Z,1012.01
2018-07-01T02:44:51.080Z,1012.00
2018-07-01T02:45:51.306Z,1012.00
2018-07-01T02:46:51.267Z,1012.01
2018-07-01T02:47:51.256Z,1011.99
2018-07-01T02:48:51.331Z,1012.00
2018-07-01T02:49:51.320Z,1012.04
2018-07-01T02:50:50.757Z,1012.03
2018-07-01T02:51:51.292Z,1012.04
2018-07-01T02:52:51.273Z,1012.03
2018-07-01T02:53:50.820Z,1012.07
2018-07-01T02:54:51.272Z,1012.07
2018-07-01T02:55:51.282Z,1012.11
2018-07-01T02:56:51.038Z,1012.11
2018-07-01T02:57:51.307Z,1012.14
2018-07-01T02:58:51.273Z,1012.14
2018-07-01T02:59:51.259Z,1012.15
2018-07-01T03:00:51.316Z,1012.15
2018-07-01T03:01:51.307Z,1012.16
2018-07-01T03:02:51.029Z,1012.15
2018-07-01T03:03:51.275Z,1012.18
2018-07-01T03:04:51.322Z,1012.16
2018-07-01T03:05:51.276Z,1012.17
2018-07-01T03:06:51.063Z,1012.15
2018-07-01T03:07:51.311Z,1012.18
2018-07-01T03:08:51.315Z,1012.17
2018-07-01T03:09:51.319Z,1012.14
2018-07-01T03:10:51.313Z,1012.17
2018-07-01T03:11:50.727Z,1012.14
2018-07-01T03:12:50.712Z,1012.19
2018-07-01T03:13:51.325Z,1012.16
2018-07-01T03:14:51.282Z,1012.15
2018-07-01T03:15:51.329Z,1012.12
2018-07-01T03:16:51.273Z,1012.20
2018-07-01T03:17:51.017Z,1012.17
2018-07-01T03:18:51.112Z,1012.21
2018-07-01T03:19:51.281Z,1012.18
2018-07-01T03:20:51.301Z,1012.17
2018-07-01T03:21:51.273Z,1012.19
2018-07-01T03:22:51.272Z,1012.20
2018-07-01T03:23:51.272Z,1012.19
2018-07-01T03:24:51.274Z,1012.17
2018-07-01T03:25:51.130Z,1012.20
2018-07-01T03:26:51.275Z,1012.19
2018-07-01T03:27:51.282Z,1012.16
2018-07-01T03:28:51.282Z,1012.17
2018-07-01T03:29:51.275Z,1012.21
2018-07-01T03:30:51.300Z,1012.20
2018-07-01T03:31:51.323Z,1012.22
2018-07-01T03:32:51.317Z,1012.21
2018-07-01T03:33:51.299Z,1012.22
2018-07-01T03:34:52.803Z,1012.24
2018-07-01T03:35:51.637Z,1012.24
2018-07-01T03:36:51.278Z,1012.21
2018-07-01T03:37:51.087Z,1012.24
2018-07-01T03:38:51.140Z,1012.21
2018-07-01T03:39:51.349Z,1012.21
2018-07-01T03:40:51.387Z,1012.23
2018-07-01T03:41:51.280Z,1012.23
2018-07-01T03:42:51.307Z,1012.20
2018-07-01T03:43:53.272Z,1012.20
2018-07-01T03:44:51.282Z,1012.20
2018-07-01T03:45:51.063Z,1012.23
2018-07-01T03:46:51.335Z,1012.23
2018-07-01T03:47:51.285Z,1012.27
2018-07-01T03:48:51.059Z,1012.29
2018-07-01T03:49:51.123Z,1012.30
2018-07-01T03:50:51.388Z,1012.33
2018-07-01T03:51:51.324Z,1012.31
2018-07-01T03:52:51.121Z,1012.32
2018-07-01T03:53:50.745Z,1012.33
2018-07-01T03:54:51.128Z,1012.36
2018-07-01T03:55:51.091Z,1012.38
2018-07-01T03:56:51.128Z,1012.35
2018-07-01T03:57:51.332Z,1012.34
2018-07-01T03:58:51.126Z,1012.36
2018-07-01T03:59:51.342Z,1012.36
2018-07-01T04:00:50.735Z,1012.38
2018-07-01T04:01:51.135Z,1012.41
2018-07-01T04:02:51.340Z,1012.39
2018-07-01T04:03:50.800Z,1012.38
2018-07-01T04:04:51.329Z,1012.40
2018-07-01T04:05:51.327Z,1012.37
2018-07-01T04:06:51.365Z,1012.38
2018-07-01T04:07:51.290Z,1012.37
2018-07-01T04:08:51.319Z,1012.36
2018-07-01T04:09:51.389Z,1012.34
2018-07-01T04:10:51.095Z,1012.39
2018-07-01T04:11:51.301Z,1012.39
2018-07-01T04:12:51.132Z,1012.43
2018-07-01T04:13:51.093Z,1012.44
2018-07-01T04:14:51.338Z,1012.45
2018-07-01T04:15:51.312Z,1012.44
2018-07-01T04:16:50.736Z,1012.46
2018-07-01T04:17:51.314Z,1012.48
2018-07-01T04:18:51.294Z,1012.47
2018-07-01T04:19:51.336Z,1012.51
2018-07-01T04:20:51.129Z,1012.44
2018-07-01T04:21:51.298Z,1012.48
2018-07-01T04:22:51.299Z,1012.54
2018-07-01T04:23:51.314Z,1012.51
2018-07-01T04:24:51.311Z,1012.50
2018-07-01T04:25:51.343Z,1012.51
2018-07-01T04:26:51.300Z,1012.53
2018-07-01T04:27:51.296Z,1012.50
2018-07-01T04:28:51.105Z,1012.47
2018-07-01T04:29:51.293Z,1012.49
2018-07-01T04:30:51.377Z,1012.44
2018-07-01T04:31:51.303Z,1012.45
2018-07-01T04:32:51.349Z,1012.48
2018-07-01T04:33:51.299Z,1012.49
2018-07-01T04:34:51.348Z,1012.48
2018-07-01T04:35:51.347Z,1012.53
2018-07-01T04:36:51.032Z,1012.49
2018-07-01T04:37:51.288Z,1012.45
2018-07-01T04:38:51.351Z,1012.57
2018-07-01T04:39:51.314Z,1012.50
2018-07-01T04:40:51.299Z,1012.55
2018-07-01T04:41:51.215Z,1012.49
2018-07-01T04:42:51.345Z,1012.52
2018-07-01T04:43:51.128Z,1012.53
2018-07-01T04:44:51.316Z,1012.53
2018-07-01T04:45:51.352Z,1012.54
2018-07-01T04:46:51.128Z,1012.54
2018-07-01T04:47:51.334Z,1012.52
2018-07-01T04:48:51.352Z,1012.47
2018-07-01T04:49:51.368Z,1012.50
2018-07-01T04:50:50.682Z,1012.49
2018-07-01T04:51:51.298Z,1012.45
2018-07-01T04:52:51.356Z,1012.48
2018-07-01T04:53:51.246Z,1012.43
2018-07-01T04:54:51.356Z,1012.50
2018-07-01T04:55:50.619Z,1012.50
2018-07-01T04:56:51.332Z,1012.52
2018-07-01T04:57:51.294Z,1012.51
2018-07-01T04:58:50.796Z,1012.52
2018-07-01T04:59:50.801Z,1012.55
2018-07-01T05:00:51.173Z,1012.58
2018-07-01T05:01:51.374Z,1012.54
2018-07-01T05:02:51.310Z,1012.57
2018-07-01T05:03:51.353Z,1012.54
2018-07-01T05:04:50.850Z,1012.59
2018-07-01T05:05:52.862Z,1012.60
2018-07-01T05:06:51.304Z,1012.58
2018-07-01T05:07:51.313Z,1012.65
2018-07-01T05:08:51.094Z,1012.68
2018-07-01T05:09:51.142Z,1012.67
2018-07-01T05:10:51.312Z,1012.74
2018-07-01T05:11:51.358Z,1012.75
2018-07-01T05:12:51.352Z,1012.74
2018-07-01T05:13:51.348Z,1012.72
2018-07-01T05:14:51.317Z,1012.71
2018-07-01T05:15:51.306Z,1012.66
2018-07-01T05:16:51.354Z,1012.67
2018-07-01T05:17:51.364Z,1012.72
2018-07-01T05:18:51.311Z,1012.70
2018-07-01T05:19:51.355Z,1012.74
2018-07-01T05:20:51.354Z,1012.69
2018-07-01T05:21:51.366Z,1012.71
2018-07-01T05:22:51.353Z,1012.71
2018-07-01T05:23:51.315Z,1012.71
2018-07-01T05:24:51.366Z,1012.71
2018-07-01T05:25:51.385Z,1012.71
2018-07-01T05:26:51.112Z,1012.70
2018-07-01T05:27:50.816Z,1012.73
2018-07-01T05:28:51.377Z,1012.74
2018-07-01T05:29:51.318Z,1012.73
2018-07-01T05:30:51.359Z,1012.72
2018-07-01T05:31:50.641Z,1012.75
2018-07-01T05:32:51.314Z,1012.75
2018-07-01T05:33:51.355Z,1012.77
2018-07-01T05:34:51.373Z,1012.77
2018-07-01T05:35:51.326Z,1012.78
2018-07-01T05:36:50.927Z,1012.79
2018-07-01T05:37:51.373Z,1012.85
2018-07-01T05:38:51.372Z,1012.84
2018-07-01T05:39:51.339Z,1012.85
2018-07-01T05:40:51.360Z,1012.84
2018-07-01T05:41:51.358Z,1012.85
2018-07-01T05:42:51.374Z,1012.87
2018-07-01T05:43:51.365Z,1012.87
2018-07-01T05:44:51.343Z,1012.88
2018-07-01T05:45:51.379Z,1012.92
2018-07-01T05:46:51.393Z,1012.90
2018-07-01T05:47:51.392Z,1012.92
2018-07-01T05:48:51.121Z,1012.94
2018-07-01T05:49:50.843Z,1012.97
2018-07-01T05:50:51.363Z,1012.94
2018-07-01T05:51:51.369Z,1012.95
2018-07-01T05:52:51.113Z,1013.02
2018-07-01T05:53:51.318Z,1013.02
2018-07-01T05:54:50.888Z,1013.00
2018-07-01T05:55:51.371Z,1012.98
2018-07-01T05:56:50.890Z,1012.98
2018-07-01T05:57:51.392Z,1012.97
2018-07-01T05:58:53.284Z,1012.93
2018-07-01T05:59:51.372Z,1012.95
2018-07-01T06:00:51.329Z,1012.98
2018-07-01T06:01:50.881Z,1012.99
2018-07-01T06:02:51.369Z,1012.95
2018-07-01T06:03:51.428Z,1012.98
2018-07-01T06:04:50.904Z,1012.97
2018-07-01T06:05:51.327Z,1012.99
2018-07-01T06:06:51.368Z,1013.01
2018-07-01T06:07:51.390Z,1013.00
2018-07-01T06:08:50.896Z,1013.02
2018-07-01T06:09:51.377Z,1012.99
2018-07-01T06:10:51.055Z,1013.01
2018-07-01T06:12:05.114Z,1013.01
2018-07-01T06:12:51.120Z,1012.93
2018-07-01T06:13:51.162Z,1012.96
2018-07-01T06:14:51.181Z,1012.96
2018-07-01T06:15:52.372Z,1012.96
2018-07-01T06:16:51.461Z,1012.97
2018-07-01T06:17:50.849Z,1012.93
2018-07-01T06:18:51.382Z,1012.98
2018-07-01T06:19:51.347Z,1012.99
2018-07-01T06:20:51.385Z,1012.99
2018-07-01T06:21:51.379Z,1013.01
2018-07-01T06:22:51.486Z,1012.99
2018-07-01T06:23:51.330Z,1012.97
2018-07-01T06:24:51.138Z,1012.98
2018-07-01T06:25:50.669Z,1012.95
2018-07-01T06:26:51.334Z,1013.00
2018-07-01T06:27:51.695Z,1012.99
2018-07-01T06:28:51.109Z,1012.96
2018-07-01T06:29:51.210Z,1012.99
2018-07-01T06:30:51.375Z,1012.97
2018-07-01T06:31:51.650Z,1012.91
2018-07-01T06:32:51.432Z,1012.96
2018-07-01T06:33:51.343Z,1012.92
2018-07-01T06:34:50.891Z,1012.96
2018-07-01T06:35:51.405Z,1012.95
2018-07-01T06:36:51.395Z,1012.95
2018-07-01T06:37:51.073Z,1012.99
2018-07-01T06:38:50.837Z,1012.95
2018-07-01T06:39:51.390Z,1012.95
2018-07-01T06:40:51.385Z,1013.01
2018-07-01T06:41:51.451Z,1012.97
2018-07-01T06:42:50.885Z,1012.97
2018-07-01T06:43:53.376Z,1012.98
2018-07-01T06:44:51.343Z,1012.98
2018-07-01T06:45:51.343Z,1012.96
2018-07-01T06:46:51.344Z,1013.00
2018-07-01T06:47:50.639Z,1012.99
2018-07-01T06:48:51.699Z,1012.95
2018-07-01T06:49:50.858Z,1012.98
2018-07-01T06:50:51.389Z,1012.96
2018-07-01T06:51:51.430Z,1012.99
2018-07-01T06:52:51.388Z,1012.99
2018-07-01T06:53:52.978Z,1013.04
2018-07-01T06:54:51.214Z,1012.98
2018-07-01T06:55:51.346Z,1012.99
2018-07-01T06:56:50.911Z,1013.06
2018-07-01T06:57:51.343Z,1013.02
2018-07-01T06:58:51.364Z,1012.99
2018-07-01T06:59:51.389Z,1012.97
2018-07-01T07:00:51.384Z,1013.05
2018-07-01T07:01:51.389Z,1013.01
2018-07-01T07:02:51.401Z,1012.98
2018-07-01T07:03:51.682Z,1012.97
2018-07-01T07:04:53.004Z,1012.99
2018-07-01T07:05:51.424Z,1012.95
2018-07-01T07:06:51.400Z,1013.02
2018-07-01T07:07:51.434Z,1012.99
2018-07-01T07:08:51.389Z,1012.95
2018-07-01T07:09:50.869Z,1013.04
2018-07-01T07:10:51.208Z,1013.05
2018-07-01T07:11:51.637Z,1013.01
2018-07-01T07:12:51.441Z,1013.00
2018-07-01T07:13:51.215Z,1013.04
2018-07-01T07:14:51.419Z,1013.06
2018-07-01T07:15:51.841Z,1013.07
2018-07-01T07:16:51.446Z,1013.05
2018-07-01T07:17:51.377Z,1013.05
2018-07-01T07:18:51.283Z,1013.09
2018-07-01T07:19:51.404Z,1013.01
2018-07-01T07:20:51.334Z,1013.17
2018-07-01T07:21:51.477Z,1013.12
2018-07-01T07:22:51.669Z,1013.07
2018-07-01T07:23:51.400Z,1013.08
2018-07-01T07:24:51.602Z,1013.08
2018-07-01T07:25:51.400Z,1013.02
2018-07-01T07:26:51.193Z,1013.01
2018-07-01T07:27:51.124Z,1013.10
2018-07-01T07:28:50.855Z,1013.09
2018-07-01T07:29:51.403Z,1013.09
2018-07-01T07:30:50.901Z,1013.09
2018-07-01T07:31:51.451Z,1013.08
2018-07-01T07:32:51.118Z,1013.03
2018-07-01T07:33:50.858Z,1013.01
2018-07-01T07:34:51.411Z,1013.09
2018-07-01T07:35:51.403Z,1013.01
2018-07-01T07:36:51.373Z,1013.10
2018-07-01T07:37:51.426Z,1013.06
2018-07-01T07:38:50.908Z,1013.09
2018-07-01T07:39:51.397Z,1013.07
2018-07-01T07:40:51.227Z,1013.10
2018-07-01T07:41:51.408Z,1013.07
2018-07-01T07:42:51.408Z,1013.14
2018-07-01T07:43:51.411Z,1013.13
2018-07-01T07:44:50.707Z,1013.07
2018-07-01T07:45:51.425Z,1013.05
2018-07-01T07:46:51.079Z,1013.03
2018-07-01T07:47:51.399Z,1013.12
2018-07-01T07:48:51.415Z,1013.14
2018-07-01T07:49:51.363Z,1013.13
2018-07-01T07:50:51.411Z,1013.10
2018-07-01T07:51:51.373Z,1013.22
2018-07-01T07:52:52.971Z,1013.14
2018-07-01T07:53:51.455Z,1013.14
2018-07-01T07:54:51.417Z,1013.11
2018-07-01T07:55:51.447Z,1013.13
2018-07-01T07:56:51.428Z,1013.13
2018-07-01T07:57:50.876Z,1013.09
2018-07-01T07:58:51.459Z,1013.01
2018-07-01T07:59:50.867Z,1013.02
2018-07-01T08:00:51.415Z,1013.15
2018-07-01T08:01:51.408Z,1013.06
2018-07-01T08:02:51.418Z,1013.10
2018-07-01T08:03:51.117Z,1013.15
2018-07-01T08:04:51.747Z,1013.14
2018-07-01T08:05:51.919Z,1013.10
2018-07-01T08:06:50.789Z,1013.09
2018-07-01T08:07:51.212Z,1013.17
2018-07-01T08:08:51.417Z,1013.15
2018-07-01T08:09:51.417Z,1013.12
2018-07-01T08:10:51.730Z,1013.11
2018-07-01T08:11:51.614Z,1013.15
2018-07-01T08:12:51.394Z,1013.20
2018-07-01T08:13:51.728Z,1013.16
2018-07-01T08:14:51.434Z,1013.17
2018-07-01T08:15:51.372Z,1013.24
2018-07-01T08:16:51.384Z,1013.24
2018-07-01T08:17:51.368Z,1013.14
2018-07-01T08:18:51.193Z,1013.15
2018-07-01T08:19:51.183Z,1013.21
2018-07-01T08:20:51.375Z,1013.12
2018-07-01T08:21:50.978Z,1013.14
2018-07-01T08:22:51.278Z,1013.13
2018-07-01T08:23:50.870Z,1013.13
2018-07-01T08:24:51.435Z,1013.08
2018-07-01T08:25:51.492Z,1013.18
2018-07-01T08:26:51.425Z,1013.27
2018-07-01T08:27:51.165Z,1013.11
2018-07-01T08:28:51.450Z,1013.21
2018-07-01T08:29:51.423Z,1013.15
2018-07-01T08:30:50.733Z,1013.19
2018-07-01T08:31:51.440Z,1013.20
2018-07-01T08:32:51.348Z,1013.12
2018-07-01T08:33:51.503Z,1013.19
2018-07-01T08:34:51.439Z,1013.21
2018-07-01T08:35:51.383Z,1013.21
2018-07-01T08:36:51.403Z,1013.17
2018-07-01T08:37:51.254Z,1013.12
2018-07-01T08:38:51.448Z,1013.25
2018-07-01T08:39:51.443Z,1013.11
2018-07-01T08:40:51.485Z,1013.17
2018-07-01T08:41:51.423Z,1013.33
2018-07-01T08:42:51.432Z,1013.19
2018-07-01T08:43:51.434Z,1013.23
2018-07-01T08:44:50.885Z,1013.20
2018-07-01T08:45:51.781Z,1013.16
2018-07-01T08:46:51.724Z,1013.21
2018-07-01T08:47:51.434Z,1013.24
2018-07-01T08:48:51.449Z,1013.17
2018-07-01T08:49:51.384Z,1013.22
2018-07-01T08:50:51.408Z,1013.17
2018-07-01T08:51:51.450Z,1013.20
2018-07-01T08:53:26.884Z,1013.21
2018-07-01T08:53:49.776Z,1013.14
2018-07-01T08:54:51.518Z,1013.14
2018-07-01T08:55:51.432Z,1013.18
2018-07-01T08:56:51.153Z,1013.08
2018-07-01T08:57:51.446Z,1013.05
2018-07-01T08:58:51.408Z,1013.06
2018-07-01T08:59:51.741Z,1013.09
2018-07-01T09:00:50.928Z,1013.08
2018-07-01T09:01:51.442Z,1012.99
2018-07-01T09:02:51.441Z,1013.06
2018-07-01T09:03:51.453Z,1013.11
2018-07-01T09:04:51.410Z,1013.16
2018-07-01T09:05:51.197Z,1013.05
2018-07-01T09:06:51.438Z,1013.08
2018-07-01T09:07:51.438Z,1013.12
2018-07-01T09:08:51.476Z,1013.06
2018-07-01T09:09:51.454Z,1013.08
2018-07-01T09:10:51.509Z,1013.11
2018-07-01T09:11:51.369Z,1013.08
2018-07-01T09:12:51.441Z,1013.07
2018-07-01T09:13:51.413Z,1013.05
2018-07-01T09:14:51.469Z,1013.08
2018-07-01T09:15:51.432Z,1013.01
2018-07-01T09:16:51.516Z,1012.94
2018-07-01T09:17:51.256Z,1013.20
2018-07-01T09:18:51.416Z,1012.95
2018-07-01T09:19:53.019Z,1012.99
2018-07-01T09:20:51.473Z,1013.05
2018-07-01T09:21:51.468Z,1013.02
2018-07-01T09:22:51.249Z,1012.98
2018-07-01T09:23:51.451Z,1013.09
2018-07-01T09:24:51.448Z,1013.06
2018-07-01T09:25:53.789Z,1013.01
2018-07-01T09:26:51.284Z,1012.98
2018-07-01T09:27:50.996Z,1013.06
2018-07-01T09:28:51.498Z,1013.03
2018-07-01T09:29:51.547Z,1013.05
2018-07-01T09:30:51.740Z,1013.05
2018-07-01T09:31:51.403Z,1013.06
2018-07-01T09:32:51.451Z,1013.06
2018-07-01T09:33:51.176Z,1013.08
2018-07-01T09:34:51.400Z,1013.01
2018-07-01T09:35:51.452Z,1013.06
2018-07-01T09:36:51.279Z,1013.04
2018-07-01T09:37:51.872Z,1013.08
2018-07-01T09:38:51.324Z,1013.07
2018-07-01T09:39:51.471Z,1013.08
2018-07-01T09:40:51.459Z,1013.11
2018-07-01T09:41:51.468Z,1013.11
2018-07-01T09:42:51.450Z,1013.14
2018-07-01T09:43:51.881Z,1013.18
2018-07-01T09:44:51.463Z,1013.18
2018-07-01T09:45:51.282Z,1013.20
2018-07-01T09:46:51.479Z,1013.15
2018-07-01T09:47:51.281Z,1013.14
2018-07-01T09:48:51.259Z,1013.14
2018-07-01T09:49:51.444Z,1013.14
2018-07-01T09:50:51.429Z,1013.15
2018-07-01T09:51:51.222Z,1013.08
2018-07-01T09:52:51.458Z,1013.03
2018-07-01T09:53:51.406Z,1013.07
2018-07-01T09:54:51.777Z,1013.07
2018-07-01T09:55:52.023Z,1013.08
2018-07-01T09:56:51.940Z,1013.04
2018-07-01T09:57:50.907Z,1013.08
2018-07-01T09:58:49.804Z,1013.04
2018-07-01T09:59:51.461Z,1013.05
2018-07-01T10:00:51.655Z,1013.08
2018-07-01T10:01:51.373Z,1012.98
2018-07-01T10:02:51.502Z,1012.92
2018-07-01T10:03:51.461Z,1012.94
2018-07-01T10:04:51.459Z,1012.84
2018-07-01T10:05:51.273Z,1012.85
2018-07-01T10:06:51.414Z,1012.81
2018-07-01T10:07:51.731Z,1012.84
2018-07-01T10:08:51.415Z,1012.95
2018-07-01T10:09:51.513Z,1012.95
2018-07-01T10:10:51.776Z,1012.86
2018-07-01T10:11:51.476Z,1012.95
2018-07-01T10:12:51.523Z,1013.02
2018-07-01T10:13:51.472Z,1013.10
2018-07-01T10:14:51.043Z,1013.02
2018-07-01T10:15:51.773Z,1013.03
2018-07-01T10:16:51.392Z,1013.05
2018-07-01T10:17:51.791Z,1013.05
2018-07-01T10:18:51.477Z,1012.98
2018-07-01T10:19:51.818Z,1012.91
2018-07-01T10:20:51.802Z,1012.88
2018-07-01T10:21:51.569Z,1012.91
2018-07-01T10:22:51.516Z,1012.90
2018-07-01T10:23:51.418Z,1012.95
2018-07-01T10:24:51.907Z,1012.97
2018-07-01T10:25:51.770Z,1012.84
2018-07-01T10:26:50.919Z,1012.89
2018-07-01T10:27:51.482Z,1012.90
2018-07-01T10:28:51.278Z,1012.83
2018-07-01T10:29:51.474Z,1012.88
2018-07-01T10:30:51.470Z,1012.91
2018-07-01T10:31:51.500Z,1012.86
2018-07-01T10:32:51.151Z,1012.87
2018-07-01T10:33:51.476Z,1012.84
2018-07-01T10:34:51.471Z,1012.85
2018-07-01T10:35:51.423Z,1012.80
2018-07-01T10:36:51.479Z,1012.88
2018-07-01T10:37:51.467Z,1012.86
2018-07-01T10:38:51.517Z,1012.83
2018-07-01T10:39:51.461Z,1012.78
2018-07-01T10:40:51.473Z,1012.86
2018-07-01T10:41:49.910Z,1012.76
2018-07-01T10:42:53.478Z,1012.79
2018-07-01T10:43:51.429Z,1012.76
2018-07-01T10:44:51.487Z,1012.69
2018-07-01T10:45:51.926Z,1012.67
2018-07-01T10:46:51.856Z,1012.72
2018-07-01T10:48:11.946Z,1012.74
2018-07-01T10:48:51.527Z,1012.76
2018-07-01T10:49:51.292Z,1012.80
2018-07-01T10:50:51.892Z,1012.74
2018-07-01T10:51:50.977Z,1012.77
2018-07-01T10:52:51.821Z,1012.69
2018-07-01T10:53:51.427Z,1012.69
2018-07-01T10:54:51.537Z,1012.70
2018-07-01T10:55:51.448Z,1012.71
2018-07-01T10:56:51.707Z,1012.78
2018-07-01T10:57:51.964Z,1012.71
2018-07-01T10:58:51.449Z,1012.65
2018-07-01T10:59:51.254Z,1012.75
2018-07-01T11:00:51.497Z,1012.58
2018-07-01T11:01:51.957Z,1012.68
2018-07-01T11:02:51.729Z,1012.73
2018-07-01T11:03:51.666Z,1012.77
2018-07-01T11:04:53.523Z,1012.68
2018-07-01T11:05:51.555Z,1012.68
2018-07-01T11:06:53.052Z,1012.64
2018-07-01T11:07:53.119Z,1012.62
2018-07-01T11:08:51.800Z,1012.62
2018-07-01T11:09:50.943Z,1012.62
2018-07-01T11:10:51.511Z,1012.58
2018-07-01T11:11:51.444Z,1012.58
2018-07-01T11:12:51.464Z,1012.58
2018-07-01T11:13:51.445Z,1012.60
2018-07-01T11:14:51.469Z,1012.59
2018-07-01T11:15:51.696Z,1012.57
2018-07-01T11:16:52.143Z,1012.62
2018-07-01T11:17:51.801Z,1012.56
2018-07-01T11:18:50.111Z,1012.60
2018-07-01T11:19:51.993Z,1012.54
2018-07-01T11:20:51.798Z,1012.52
2018-07-01T11:21:51.881Z,1012.51
2018-07-01T11:22:51.488Z,1012.55
2018-07-01T11:23:51.448Z,1012.57
2018-07-01T11:24:51.006Z,1012.64
2018-07-01T11:25:51.453Z,1012.56
2018-07-01T11:26:51.610Z,1012.52
2018-07-01T11:27:51.824Z,1012.56
2018-07-01T11:28:51.462Z,1012.53
2018-07-01T11:29:52.013Z,1012.45
2018-07-01T11:30:51.996Z,1012.48
2018-07-01T11:31:53.448Z,1012.47
2018-07-01T11:32:51.712Z,1012.43
2018-07-01T11:33:51.822Z,1012.39
2018-07-01T11:34:51.881Z,1012.36
2018-07-01T11:35:52.286Z,1012.38
2018-07-01T11:36:51.517Z,1012.31
2018-07-01T11:37:51.818Z,1012.38
2018-07-01T11:38:53.950Z,1012.42
2018-07-01T11:39:51.979Z,1012.44
2018-07-01T11:40:51.994Z,1012.41
2018-07-01T11:41:51.804Z,1012.42
2018-07-01T11:42:51.814Z,1012.38
2018-07-01T11:43:52.006Z,1012.37
2018-07-01T11:44:51.494Z,1012.39
2018-07-01T11:45:51.506Z,1012.44
2018-07-01T11:46:52.003Z,1012.34
2018-07-01T11:47:51.967Z,1012.41
2018-07-01T11:48:51.283Z,1012.32
2018-07-01T11:49:53.559Z,1012.24
2018-07-01T11:50:51.728Z,1012.28
2018-07-01T11:51:51.472Z,1012.27
2018-07-01T11:52:51.955Z,1012.25
2018-07-01T11:53:52.026Z,1012.28
2018-07-01T11:54:51.469Z,1012.28
2018-07-01T11:55:51.996Z,1012.31
2018-07-01T11:56:51.999Z,1012.34
2018-07-01T11:57:51.522Z,1012.32
2018-07-01T11:58:52.030Z,1012.28
2018-07-01T11:59:52.026Z,1012.31
2018-07-01T12:00:51.818Z,1012.33
2018-07-01T12:01:52.119Z,1012.32
2018-07-01T12:02:52.064Z,1012.41
2018-07-01T12:03:51.540Z,1012.30
2018-07-01T12:05:16.210Z,1012.38
2018-07-01T12:05:52.323Z,1012.26
2018-07-01T12:06:51.766Z,1012.34